Time;durP1;ratioP1;P1;durP2;ratioP2;P2;SDS_P1;SDS_P2;PMS_P1;PMS_P2;Temp;Humidity;BMP_temperature;BMP_pressure;BME280_temperature;BME280_humidity;BME280_pressure;Samples;Min_cycle;Max_cycle;Signal;HPM_P1;HPM_P2
2023/09/07 00:01:44;;;;;;;5.30;2.58;;;19.80;99.90;;;;;;6124559;23;20037;-70
2023/09/07 00:04:10;;;;;;;3.78;2.70;;;19.70;99.90;;;;;;6150815;23;20018;-70
2023/09/07 00:06:36;;;;;;;3.90;2.90;;;19.70;99.90;;;;;;6124637;23;20010;-71
2023/09/07 00:09:03;;;;;;;7.60;3.10;;;19.70;99.90;;;;;;6126632;23;20343;-70
2023/09/07 00:11:29;;;;;;;3.78;2.45;;;19.60;99.90;;;;;;6126527;23;20022;-70
2023/09/07 00:13:56;;;;;;;5.07;2.80;;;19.50;99.90;;;;;;6126449;23;20014;-70
2023/09/07 00:16:21;;;;;;;3.78;2.90;;;19.50;99.90;;;;;;6153040;23;20021;-70
2023/09/07 00:18:47;;;;;;;3.47;3.00;;;19.40;99.90;;;;;;6126655;23;20497;-70
2023/09/07 00:21:13;;;;;;;3.60;2.33;;;19.40;99.90;;;;;;6126102;23;20144;-70
2023/09/07 00:23:40;;;;;;;8.63;2.78;;;19.40;99.90;;;;;;6153015;23;20355;-70
2023/09/07 00:26:05;;;;;;;3.47;2.58;;;19.30;99.90;;;;;;6126364;23;20020;-70
2023/09/07 00:28:31;;;;;;;5.22;2.70;;;19.30;99.90;;;;;;6126323;23;20555;-70
2023/09/07 00:30:57;;;;;;;3.67;2.80;;;19.30;99.90;;;;;;6153018;23;20013;-69
2023/09/07 00:33:22;;;;;;;4.88;2.83;;;19.30;99.90;;;;;;6152848;23;20311;-70
2023/09/07 00:35:48;;;;;;;4.07;2.92;;;19.20;99.90;;;;;;6125918;23;20024;-70
2023/09/07 00:38:13;;;;;;;4.45;2.92;;;19.10;99.90;;;;;;6126528;23;20033;-70
2023/09/07 00:40:44;;;;;;;3.15;2.50;;;19.10;99.90;;;;;;6126430;23;20276;-70
2023/09/07 00:43:10;;;;;;;3.65;3.08;;;19.10;99.90;;;;;;6126188;23;20014;-70
2023/09/07 00:45:35;;;;;;;5.07;3.03;;;19.10;99.90;;;;;;6153067;23;20023;-70
2023/09/07 00:48:02;;;;;;;4.57;2.90;;;19.00;99.90;;;;;;6152886;23;20670;-70
2023/09/07 00:50:27;;;;;;;3.47;2.60;;;19.00;99.90;;;;;;6126290;23;20014;-70
2023/09/07 00:52:54;;;;;;;3.33;2.55;;;19.00;99.90;;;;;;6126924;23;20469;-70
2023/09/07 00:55:21;;;;;;;3.55;3.00;;;19.00;99.90;;;;;;6126722;23;20021;-69
2023/09/07 00:57:47;;;;;;;6.43;3.08;;;19.00;99.90;;;;;;6153039;23;20084;-70
2023/09/07 01:00:13;;;;;;;6.05;3.30;;;19.00;99.90;;;;;;6152990;23;20095;-70
2023/09/07 01:02:39;;;;;;;5.13;2.88;;;18.90;99.90;;;;;;6126299;23;20118;-70
2023/09/07 01:05:05;;;;;;;6.10;2.92;;;18.90;99.90;;;;;;6152327;23;20479;-71
2023/09/07 01:07:47;;;;;;;4.20;3.20;;;18.80;99.90;;;;;;6126535;23;20447;-70
2023/09/07 01:10:13;;;;;;;5.35;3.45;;;18.80;99.90;;;;;;6126278;23;20073;-70
2023/09/07 01:12:40;;;;;;;4.40;2.97;;;18.80;99.90;;;;;;6125964;23;20021;-70
2023/09/07 01:15:06;;;;;;;6.20;3.60;;;18.80;99.90;;;;;;6152653;23;20096;-70
2023/09/07 01:17:34;;;;;;;4.15;2.90;;;18.80;99.90;;;;;;6152571;23;20032;-70
2023/09/07 01:20:09;;;;;;;4.93;3.47;;;18.80;99.90;;;;;;6151968;23;20021;-70
2023/09/07 01:22:36;;;;;;;5.82;3.42;;;18.70;99.90;;;;;;6126144;23;20030;-70
2023/09/07 01:25:04;;;;;;;5.25;3.38;;;18.70;99.90;;;;;;6151957;23;20406;-70
2023/09/07 01:27:30;;;;;;;7.28;3.58;;;18.60;99.90;;;;;;6152537;23;20095;-70
2023/09/07 01:29:57;;;;;;;6.53;3.70;;;18.70;99.90;;;;;;6152420;23;20025;-70
2023/09/07 01:32:23;;;;;;;5.07;3.60;;;18.50;99.90;;;;;;6152638;23;20068;-70
2023/09/07 01:34:49;;;;;;;4.70;3.17;;;18.60;99.90;;;;;;6151932;23;20327;-70
2023/09/07 01:37:14;;;;;;;6.53;3.53;;;18.60;99.90;;;;;;6126021;23;20021;-70
2023/09/07 01:39:40;;;;;;;6.88;3.47;;;18.50;99.90;;;;;;6125780;23;20022;-70
2023/09/07 01:42:06;;;;;;;5.90;3.45;;;18.50;99.90;;;;;;6101245;23;20032;-71
2023/09/07 01:44:32;;;;;;;4.78;3.45;;;18.50;99.90;;;;;;6151924;23;20025;-70
2023/09/07 01:46:57;;;;;;;6.25;3.38;;;18.50;99.90;;;;;;6152974;23;20005;-69
2023/09/07 01:49:23;;;;;;;10.40;3.50;;;18.50;99.90;;;;;;6152606;23;20028;-71
2023/09/07 01:51:52;;;;;;;4.68;3.55;;;18.50;99.90;;;;;;6152445;23;20052;-70
2023/09/07 01:54:18;;;;;;;6.40;3.17;;;18.40;99.90;;;;;;6152379;23;20506;-70
2023/09/07 01:56:43;;;;;;;6.63;3.15;;;18.40;99.90;;;;;;6101433;23;20052;-70
2023/09/07 01:59:09;;;;;;;4.90;3.53;;;18.40;99.90;;;;;;6125849;23;20360;-70
2023/09/07 02:01:37;;;;;;;6.72;3.60;;;18.40;99.90;;;;;;6151893;23;20520;-70
2023/09/07 02:04:03;;;;;;;4.20;3.50;;;18.30;99.90;;;;;;6151958;23;20064;-70
2023/09/07 02:06:29;;;;;;;7.93;3.75;;;18.30;99.90;;;;;;6101430;23;20473;-70
2023/09/07 02:08:54;;;;;;;4.47;3.55;;;18.30;99.90;;;;;;6101229;23;20029;-70
2023/09/07 02:11:20;;;;;;;4.45;3.78;;;18.20;99.90;;;;;;6126243;23;20052;-70
2023/09/07 02:13:47;;;;;;;5.10;3.30;;;18.30;99.90;;;;;;6152576;23;20020;-70
2023/09/07 02:16:13;;;;;;;7.00;3.47;;;18.20;99.90;;;;;;6152068;23;20454;-70
2023/09/07 02:18:43;;;;;;;5.13;3.65;;;18.20;99.90;;;;;;6152191;23;20439;-70
2023/09/07 02:21:09;;;;;;;5.78;2.95;;;18.20;99.90;;;;;;6101673;23;20033;-70
2023/09/07 02:23:37;;;;;;;5.60;3.50;;;18.10;99.90;;;;;;6126362;23;20021;-70
2023/09/07 02:26:03;;;;;;;4.55;3.50;;;18.10;99.90;;;;;;6125423;23;20025;-70
2023/09/07 02:28:29;;;;;;;4.50;3.83;;;18.10;99.90;;;;;;6152495;23;20021;-70
2023/09/07 02:31:02;;;;;;;8.30;3.72;;;18.10;99.90;;;;;;6125689;23;20447;-70
2023/09/07 02:33:28;;;;;;;;;;;18.00;99.90;;;;;;6101465;23;20018;-70
2023/09/07 02:35:53;;;;;;;5.10;3.55;;;18.00;99.90;;;;;;6152072;23;19943;-70
2023/09/07 02:38:19;;;;;;;4.35;3.47;;;18.00;99.90;;;;;;6125291;23;20104;-70
2023/09/07 02:40:45;;;;;;;3.90;3.38;;;18.00;99.90;;;;;;6125616;23;20354;-70
2023/09/07 02:43:11;;;;;;;4.53;3.80;;;18.00;99.90;;;;;;6151359;23;20521;-70
2023/09/07 02:45:38;;;;;;;4.20;3.40;;;18.00;99.90;;;;;;6125728;23;20017;-70
2023/09/07 02:48:05;;;;;;;5.55;3.92;;;18.00;99.90;;;;;;6151827;23;20017;-70
2023/09/07 02:50:33;;;;;;;5.78;3.45;;;17.90;99.90;;;;;;6125273;23;20084;-70
2023/09/07 02:53:00;;;;;;;6.45;4.35;;;17.90;99.90;;;;;;6100891;23;20017;-70
2023/09/07 02:55:26;;;;;;;7.15;3.83;;;17.80;99.90;;;;;;6125321;23;20029;-70
2023/09/07 02:57:52;;;;;;;8.55;3.85;;;17.80;99.90;;;;;;6125265;23;20057;-70
2023/09/07 03:00:18;;;;;;;5.93;3.70;;;17.80;99.90;;;;;;6151665;23;20013;-70
2023/09/07 03:02:44;;;;;;;5.03;4.07;;;17.80;99.90;;;;;;6151412;23;20520;-70
2023/09/07 03:05:10;;;;;;;4.10;3.63;;;17.80;99.90;;;;;;6151754;23;20013;-70
2023/09/07 03:07:36;;;;;;;6.32;3.78;;;17.80;99.90;;;;;;6151412;23;20021;-70
2023/09/07 03:10:01;;;;;;;5.22;3.40;;;17.70;99.90;;;;;;6125561;23;20018;-70
2023/09/07 03:12:28;;;;;;;7.63;3.70;;;17.70;99.90;;;;;;6151376;23;20014;-70
2023/09/07 03:14:53;;;;;;;6.10;3.88;;;17.70;99.90;;;;;;6125438;23;20021;-70
2023/09/07 03:17:22;;;;;;;5.95;3.38;;;17.60;99.90;;;;;;6151134;23;20014;-70
2023/09/07 03:19:48;;;;;;;4.50;3.38;;;17.60;99.90;;;;;;6151430;23;20382;-70
2023/09/07 03:22:14;;;;;;;6.07;4.20;;;17.50;99.90;;;;;;6125124;23;20025;-70
2023/09/07 03:24:40;;;;;;;7.82;3.78;;;17.60;99.90;;;;;;6100445;23;20037;-70
2023/09/07 03:27:06;;;;;;;7.43;3.90;;;17.50;99.90;;;;;;6151671;23;20021;-70
2023/09/07 03:29:35;;;;;;;8.52;3.92;;;17.50;99.90;;;;;;6151331;23;20092;-70
2023/09/07 03:32:01;;;;;;;4.60;3.95;;;17.50;99.90;;;;;;6124883;23;20024;-70
2023/09/07 03:34:27;;;;;;;5.82;4.10;;;17.50;99.90;;;;;;6151377;23;20013;-70
2023/09/07 03:36:53;;;;;;;7.65;4.38;;;17.50;99.90;;;;;;6151590;23;20010;-70
2023/09/07 03:39:21;;;;;;;6.03;4.55;;;17.50;99.90;;;;;;6151013;23;20021;-70
2023/09/07 03:41:47;;;;;;;6.28;4.63;;;17.40;99.90;;;;;;6124997;23;20052;-70
2023/09/07 03:44:12;;;;;;;5.75;5.15;;;17.50;99.90;;;;;;6149393;23;20689;-70
2023/09/07 03:46:38;;;;;;;5.03;4.53;;;17.60;99.90;;;;;;6100837;23;20455;-70
2023/09/07 03:49:04;;;;;;;5.13;4.47;;;17.60;99.90;;;;;;6151729;23;20025;-70
2023/09/07 03:51:31;;;;;;;5.75;4.50;;;17.60;99.90;;;;;;6100925;23;20052;-70
2023/09/07 03:53:57;;;;;;;6.57;4.60;;;17.60;99.90;;;;;;6151510;23;20017;-70
2023/09/07 03:56:23;;;;;;;5.55;4.65;;;17.50;99.90;;;;;;6124950;23;20013;-69
2023/09/07 03:58:49;;;;;;;11.77;4.50;;;17.60;99.90;;;;;;6124804;23;20112;-70
2023/09/07 04:01:14;;;;;;;7.50;4.75;;;17.60;99.90;;;;;;6125046;23;20053;-70
2023/09/07 04:03:41;;;;;;;5.45;4.32;;;17.60;99.90;;;;;;6125202;23;20024;-70
2023/09/07 04:06:07;;;;;;;8.98;4.93;;;17.60;99.90;;;;;;6124855;23;20354;-70
2023/09/07 04:08:33;;;;;;;8.80;5.38;;;17.70;99.90;;;;;;6124675;23;20017;-70
2023/09/07 04:11:03;;;;;;;7.28;4.95;;;17.80;99.90;;;;;;6151478;23;20017;-70
2023/09/07 04:13:29;;;;;;;7.82;4.45;;;17.80;99.90;;;;;;6124642;23;20067;-70
2023/09/07 04:15:54;;;;;;;6.00;4.70;;;17.70;99.90;;;;;;6124608;23;20453;-70
2023/09/07 04:18:20;;;;;;;5.30;4.60;;;17.70;99.90;;;;;;6124552;23;20045;-71
2023/09/07 04:20:46;;;;;;;6.57;4.60;;;17.60;99.90;;;;;;6150703;23;20020;-70
2023/09/07 04:23:11;;;;;;;8.55;4.90;;;17.60;99.90;;;;;;6124644;23;20018;-70
2023/09/07 04:25:39;;;;;;;6.22;4.53;;;17.50;99.90;;;;;;6124087;23;20054;-70
2023/09/07 04:28:08;;;;;;;7.50;5.13;;;17.40;99.90;;;;;;6124265;23;20025;-71
2023/09/07 04:30:41;;;;;;;6.32;4.18;;;17.40;99.90;;;;;;6150685;23;20415;-70
2023/09/07 04:33:07;;;;;;;6.40;4.85;;;17.30;99.90;;;;;;6150854;23;20013;-70
2023/09/07 04:35:33;;;;;;;5.85;4.72;;;17.30;99.90;;;;;;6150745;23;20080;-70
2023/09/07 04:37:59;;;;;;;7.03;5.05;;;17.30;99.90;;;;;;6100021;23;20084;-70
2023/09/07 04:40:25;;;;;;;6.63;5.35;;;17.30;99.90;;;;;;6099876;23;20075;-70
2023/09/07 04:42:51;;;;;;;6.88;5.05;;;17.30;99.90;;;;;;6124134;23;20093;-70
2023/09/07 04:45:17;;;;;;;6.88;4.93;;;17.40;99.90;;;;;;6124071;23;20025;-70
2023/09/07 04:47:43;;;;;;;8.68;5.40;;;17.40;99.90;;;;;;6150506;23;20029;-70
2023/09/07 04:50:09;;;;;;;6.40;4.70;;;17.60;99.90;;;;;;6124337;23;20052;-70
2023/09/07 04:52:35;;;;;;;7.00;4.75;;;17.50;99.90;;;;;;6124328;23;20092;-70
2023/09/07 04:55:02;;;;;;;11.90;4.88;;;17.60;99.90;;;;;;6151423;23;20025;-70
2023/09/07 04:57:28;;;;;;;6.45;4.30;;;17.70;99.90;;;;;;6125816;23;20025;-70
2023/09/07 04:59:54;;;;;;;7.75;5.50;;;17.70;99.90;;;;;;6152106;23;20028;-70
2023/09/07 05:02:20;;;;;;;6.28;4.75;;;17.70;99.90;;;;;;6125943;23;20021;-70
2023/09/07 05:04:45;;;;;;;6.15;5.10;;;17.70;99.90;;;;;;6152247;23;20025;-71
2023/09/07 05:07:12;;;;;;;7.45;5.03;;;17.80;99.90;;;;;;6152641;23;20337;-70
2023/09/07 05:09:38;;;;;;;6.25;4.60;;;17.80;99.90;;;;;;6152541;23;20006;-70
2023/09/07 05:12:03;;;;;;;7.35;5.15;;;17.90;99.90;;;;;;6125947;23;20055;-70
2023/09/07 05:14:29;;;;;;;6.72;5.05;;;17.90;99.90;;;;;;6151926;23;20018;-70
2023/09/07 05:16:56;;;;;;;5.72;4.70;;;17.80;99.90;;;;;;6152508;23;20056;-70
2023/09/07 05:19:22;;;;;;;6.90;4.75;;;17.90;99.90;;;;;;6152256;23;20025;-70
2023/09/07 05:21:48;;;;;;;14.82;4.88;;;17.90;99.90;;;;;;6152322;23;20016;-70
2023/09/07 05:24:17;;;;;;;6.82;4.78;;;18.00;99.90;;;;;;6101513;23;20442;-70
2023/09/07 05:26:43;;;;;;;6.80;4.97;;;18.00;99.90;;;;;;6100639;23;20017;-70
2023/09/07 05:29:11;;;;;;;6.13;5.15;;;18.00;99.90;;;;;;6152321;23;20025;-70
2023/09/07 05:31:37;;;;;;;6.85;5.22;;;18.00;99.90;;;;;;6151776;23;20021;-70
2023/09/07 06:28:17;;;;;;;11.75;5.80;;;19.10;99.90;;;;;;6151629;23;20065;-70
2023/09/07 06:30:42;;;;;;;7.25;4.82;;;19.10;99.90;;;;;;6125665;23;20379;-70
2023/09/07 06:33:08;;;;;;;7.95;5.85;;;19.10;99.90;;;;;;6151612;23;20088;-70
2023/09/07 06:35:34;;;;;;;7.90;5.45;;;19.20;99.90;;;;;;6151285;23;20066;-70
2023/09/07 06:37:59;;;;;;;12.32;6.28;;;19.20;99.90;;;;;;6151355;23;20575;-70
2023/09/07 06:40:26;;;;;;;10.32;6.28;;;19.30;99.90;;;;;;6150974;23;20028;-70
2023/09/07 06:42:52;;;;;;;11.93;5.75;;;19.30;99.90;;;;;;6151598;23;20848;-70
2023/09/07 06:45:18;;;;;;;9.43;5.43;;;19.30;99.90;;;;;;6149604;23;20145;-70
2023/09/07 06:47:44;;;;;;;8.77;6.28;;;19.40;99.90;;;;;;6151317;23;20121;-70
2023/09/07 06:50:10;;;;;;;6.55;5.57;;;19.40;99.90;;;;;;6124645;23;20026;-70
2023/09/07 06:52:35;;;;;;;12.75;5.65;;;19.40;99.90;;;;;;6124731;23;20049;-71
2023/09/07 06:55:01;;;;;;;6.80;5.15;;;19.50;99.90;;;;;;6150945;23;20053;-70
2023/09/07 06:57:27;;;;;;;8.88;5.50;;;19.60;99.90;;;;;;6151460;23;20076;-70
2023/09/07 06:59:53;;;;;;;10.02;5.38;;;19.60;99.90;;;;;;6124819;23;20014;-70
2023/09/07 07:02:18;;;;;;;7.25;5.28;;;19.70;99.90;;;;;;6124720;23;20025;-70
2023/09/07 07:04:46;;;;;;;9.45;5.95;;;19.70;99.90;;;;;;6124840;23;20025;-70
2023/09/07 07:07:11;;;;;;;8.05;5.55;;;19.80;99.90;;;;;;6124668;23;20025;-71
2023/09/07 07:09:37;;;;;;;8.63;5.22;;;19.90;99.90;;;;;;6124737;23;20032;-71
2023/09/07 07:12:03;;;;;;;6.72;5.32;;;19.90;99.90;;;;;;6151447;23;20461;-70
2023/09/07 07:14:29;;;;;;;9.45;5.88;;;20.00;99.90;;;;;;6124677;23;20025;-71
2023/09/07 07:16:55;;;;;;;8.25;5.90;;;20.00;99.90;;;;;;6125224;23;20018;-71
2023/09/07 07:19:20;;;;;;;9.27;5.80;;;20.10;99.90;;;;;;6151292;23;20053;-70
2023/09/07 07:21:46;;;;;;;7.40;5.15;;;20.10;99.90;;;;;;6124762;23;20056;-71
2023/09/07 07:24:12;;;;;;;7.72;5.15;;;20.20;99.90;;;;;;6124969;23;20076;-71
2023/09/07 07:26:37;;;;;;;8.15;5.20;;;20.20;99.90;;;;;;6160397;23;20025;-71
2023/09/07 07:29:03;;;;;;;7.03;5.03;;;20.30;99.90;;;;;;6181498;23;20021;-70
2023/09/07 07:31:29;;;;;;;6.80;4.85;;;20.30;99.90;;;;;;6181294;23;20021;-70
2023/09/07 07:33:55;;;;;;;5.22;4.65;;;20.40;99.90;;;;;;6154343;23;20079;-70
2023/09/07 07:36:21;;;;;;;11.65;5.15;;;20.50;99.90;;;;;;6180561;23;20048;-70
2023/09/07 07:38:47;;;;;;;7.95;5.15;;;20.50;99.90;;;;;;6154005;23;20039;-70
2023/09/07 07:41:13;;;;;;;7.65;4.90;;;20.60;99.90;;;;;;6180873;23;20526;-70
2023/09/07 07:43:39;;;;;;;7.63;4.90;;;20.70;99.90;;;;;;6129632;23;20130;-70
2023/09/07 07:46:05;;;;;;;8.20;5.15;;;20.70;99.90;;;;;;6154079;23;20089;-70
2023/09/07 07:48:31;;;;;;;6.53;5.10;;;20.80;99.90;;;;;;6154125;23;20029;-70
2023/09/07 07:50:56;;;;;;;8.05;4.57;;;20.90;99.90;;;;;;6180470;23;20439;-70
2023/09/07 07:53:22;;;;;;;10.50;4.90;;;20.90;99.90;;;;;;6180441;23;20071;-70
2023/09/07 07:55:48;;;;;;;7.68;5.25;;;21.00;99.90;;;;;;6153883;23;20103;-70
2023/09/07 07:58:14;;;;;;;6.80;4.35;;;21.10;99.90;;;;;;6154292;23;20068;-70
2023/09/07 08:00:40;;;;;;;6.50;4.30;;;21.20;99.90;;;;;;6129405;23;20831;-70
2023/09/07 08:03:06;;;;;;;7.57;4.50;;;21.30;99.90;;;;;;6153776;23;20032;-70
2023/09/07 08:05:33;;;;;;;8.60;4.55;;;21.30;99.90;;;;;;6153795;23;20021;-70
2023/09/07 08:07:59;;;;;;;11.95;5.10;;;21.40;99.90;;;;;;6180395;23;20131;-70
2023/09/07 08:10:25;;;;;;;7.55;4.88;;;21.40;99.90;;;;;;6153950;23;20032;-70
2023/09/07 08:12:55;;;;;;;7.88;4.93;;;21.50;99.90;;;;;;6180376;23;20009;-70
2023/09/07 08:15:22;;;;;;;7.00;5.47;;;21.60;99.90;;;;;;6153646;23;20059;-69
2023/09/07 08:17:48;;;;;;;6.07;4.32;;;21.60;99.90;;;;;;6153892;23;20017;-71
2023/09/07 08:20:15;;;;;;;5.28;4.60;;;21.70;99.90;;;;;;6180404;23;20059;-69
2023/09/07 08:22:42;;;;;;;9.98;4.93;;;21.70;99.90;;;;;;6129307;23;20020;-69
2023/09/07 08:25:15;;;;;;;6.25;4.40;;;21.80;99.90;;;;;;6153593;23;20048;-69
2023/09/07 08:27:45;;;;;;;6.25;4.60;;;21.90;99.90;;;;;;6128981;23;20154;-69
2023/09/07 08:30:17;;;;;;;6.35;4.10;;;22.00;99.90;;;;;;6131436;23;20021;-69
2023/09/07 08:32:44;;;;;;;6.57;4.68;;;22.10;99.90;;;;;;6155769;23;20044;-69
2023/09/07 08:35:13;;;;;;;6.88;3.65;;;22.10;99.90;;;;;;6182515;23;20096;-69
2023/09/07 08:37:39;;;;;;;6.18;3.95;;;22.20;99.90;;;;;;6183015;23;20020;-69
2023/09/07 08:40:07;;;;;;;8.20;4.22;;;22.30;99.90;;;;;;6156145;23;20345;-69
2023/09/07 08:42:36;;;;;;;5.40;4.28;;;22.40;99.90;;;;;;6182776;23;20084;-69
2023/09/07 08:45:06;;;;;;;7.15;4.10;;;22.40;99.90;;;;;;6182505;23;20025;-70
2023/09/07 08:47:34;;;;;;;7.28;4.53;;;22.40;99.90;;;;;;6131144;23;20029;-70
2023/09/07 08:50:01;;;;;;;11.98;4.60;;;22.50;99.90;;;;;;6182131;23;20092;-70
2023/09/07 08:52:26;;;;;;;8.15;4.55;;;22.60;99.90;;;;;;6130859;23;20098;-70
2023/09/07 08:54:54;;;;;;;6.65;4.00;;;22.70;99.90;;;;;;6182471;23;20092;-69
2023/09/07 08:57:22;;;;;;;7.93;4.53;;;22.70;99.90;;;;;;6155398;23;20346;-70
2023/09/07 08:59:49;;;;;;;5.95;3.80;;;22.70;99.90;;;;;;6155907;23;20527;-69
2023/09/07 09:02:16;;;;;;;5.75;4.03;;;22.70;99.90;;;;;;6182166;23;20017;-70
2023/09/07 09:04:42;;;;;;;8.65;3.97;;;22.80;99.90;;;;;;6155788;23;20371;-70
2023/09/07 09:07:08;;;;;;;15.02;4.88;;;22.80;99.90;;;;;;6155749;23;20017;-70
2023/09/07 09:09:33;;;;;;;12.00;4.13;;;22.90;99.90;;;;;;6131382;23;20228;-70
2023/09/07 09:12:12;;;;;;;6.80;4.30;;;23.00;99.90;;;;;;6182526;23;20021;-70
2023/09/07 09:14:46;;;;;;;5.53;4.10;;;23.10;99.90;;;;;;6130792;23;20055;-70
2023/09/07 09:17:15;;;;;;;5.88;4.28;;;23.10;99.90;;;;;;6131026;23;20082;-70
2023/09/07 09:19:41;;;;;;;13.02;4.13;;;23.10;99.90;;;;;;6182067;23;20027;-70
2023/09/07 09:22:07;;;;;;;7.68;3.90;;;23.20;99.90;;;;;;6182329;23;20044;-69
2023/09/07 09:24:34;;;;;;;7.65;4.00;;;23.20;99.90;;;;;;6155368;23;20088;-70
2023/09/07 09:27:00;;;;;;;10.30;4.32;;;23.30;99.90;;;;;;6181883;23;20052;-70
2023/09/07 09:29:27;;;;;;;4.68;4.05;;;23.30;99.90;;;;;;6155305;23;20532;-70
2023/09/07 09:31:53;;;;;;;5.47;4.15;;;23.40;99.90;;;;;;6181989;23;20060;-70
2023/09/07 09:34:20;;;;;;;7.55;3.83;;;23.50;99.90;;;;;;6130384;23;20021;-69
2023/09/07 09:36:46;;;;;;;4.95;3.42;;;23.70;99.90;;;;;;6182172;23;20025;-70
2023/09/07 09:39:22;;;;;;;6.15;3.75;;;23.70;99.90;;;;;;6181646;23;20397;-70
2023/09/07 09:41:49;;;;;;;6.80;3.78;;;23.80;99.90;;;;;;6130280;23;20355;-70
2023/09/07 09:44:16;;;;;;;8.45;3.30;;;23.80;99.90;;;;;;6155049;23;20028;-70
2023/09/07 09:46:44;;;;;;;5.38;4.10;;;23.90;99.90;;;;;;6155319;23;20084;-70
2023/09/07 09:49:13;;;;;;;8.25;3.78;;;23.90;99.90;;;;;;6181837;23;20013;-70
2023/09/07 09:51:39;;;;;;;7.38;4.05;;;23.90;99.90;;;;;;6154713;23;20103;-70
2023/09/07 09:54:06;;;;;;;5.45;3.65;;;24.00;99.90;;;;;;6181353;23;20017;-70
2023/09/07 09:56:32;;;;;;;7.72;3.65;;;24.10;99.90;;;;;;6181213;23;20053;-70
2023/09/07 09:58:57;;;;;;;8.45;3.88;;;24.10;99.90;;;;;;6154935;23;20090;-69
2023/09/07 10:01:23;;;;;;;6.05;3.38;;;24.10;99.90;;;;;;6154800;23;20592;-70
2023/09/07 10:03:50;;;;;;;9.38;3.03;;;24.20;99.90;;;;;;6181762;23;20095;-70
2023/09/07 10:06:28;;;;;;;6.25;3.53;;;24.30;99.90;;;;;;6181257;23;20025;-70
2023/09/07 10:09:10;;;;;;;4.93;3.95;;;24.50;99.90;;;;;;6154620;23;20033;-70
2023/09/07 10:11:39;;;;;;;5.05;3.65;;;24.60;99.90;;;;;;6130191;23;20119;-70
2023/09/07 10:14:06;;;;;;;7.18;3.60;;;24.60;99.90;;;;;;6181605;23;20024;-70
2023/09/07 10:16:51;;;;;;;6.15;3.70;;;24.70;99.90;;;;;;6129722;23;20417;-70
2023/09/07 10:19:21;;;;;;;4.75;3.50;;;24.80;99.90;;;;;;6181296;23;20484;-69
2023/09/07 10:21:48;;;;;;;6.97;3.67;;;24.80;99.90;;;;;;6181143;23;20075;-70
2023/09/07 10:24:33;;;;;;;6.78;3.50;;;24.80;99.90;;;;;;6130084;23;20021;-69
2023/09/07 10:27:00;;;;;;;4.45;3.30;;;24.80;99.90;;;;;;6180995;23;20613;-70
2023/09/07 10:29:27;;;;;;;4.68;3.60;;;24.80;99.90;;;;;;6181347;23;20024;-70
2023/09/07 10:31:53;;;;;;;6.90;3.53;;;24.90;99.90;;;;;;6180752;23;20049;-69
2023/09/07 10:34:20;;;;;;;7.03;3.70;;;24.90;99.90;;;;;;6181851;23;20028;-70
2023/09/07 10:36:46;;;;;;;5.63;3.85;;;25.00;99.90;;;;;;6181817;23;20029;-70
2023/09/07 10:39:12;;;;;;;5.55;3.97;;;25.00;99.90;;;;;;6181518;23;20441;-70
2023/09/07 10:41:43;;;;;;;6.60;3.70;;;25.20;99.90;;;;;;6180895;23;20017;-70
2023/09/07 10:44:10;;;;;;;5.20;3.53;;;25.20;99.90;;;;;;6181363;23;20021;-70
2023/09/07 10:46:37;;;;;;;7.82;3.40;;;25.20;99.90;;;;;;6181144;23;20063;-70
2023/09/07 10:49:06;;;;;;;7.50;3.80;;;25.30;99.90;;;;;;6154777;23;20013;-70
2023/09/07 10:51:32;;;;;;;5.88;3.35;;;25.30;99.90;;;;;;6154356;23;20509;-69
2023/09/07 10:53:58;;;;;;;4.22;3.40;;;25.30;99.90;;;;;;6130225;23;20059;-70
2023/09/07 10:56:26;;;;;;;8.05;3.80;;;25.40;99.90;;;;;;6154403;23;20021;-70
2023/09/07 10:58:54;;;;;;;6.90;3.25;;;25.50;99.90;;;;;;6154784;23;20024;-70
2023/09/07 11:01:20;;;;;;;5.85;3.70;;;25.50;99.90;;;;;;6154452;23;20056;-70
2023/09/07 11:03:46;;;;;;;5.63;3.67;;;25.50;99.90;;;;;;6154454;23;20021;-70
2023/09/07 11:06:20;;;;;;;5.45;3.88;;;25.60;99.90;;;;;;6180986;23;20021;-70
2023/09/07 11:08:46;;;;;;;7.70;3.70;;;25.60;99.90;;;;;;6180546;23;20075;-70
2023/09/07 11:11:13;;;;;;;5.22;3.42;;;25.60;99.90;;;;;;6154329;23;20025;-69
2023/09/07 11:13:39;;;;;;;8.15;4.13;;;25.60;99.90;;;;;;6154205;23;20028;-70
2023/09/07 11:16:08;;;;;;;7.88;3.65;;;25.60;99.90;;;;;;6180669;23;20504;-69
2023/09/07 11:18:35;;;;;;;6.22;3.42;;;25.70;99.90;;;;;;6129734;23;20028;-70
2023/09/07 11:21:07;;;;;;;3.83;3.42;;;25.70;99.90;;;;;;6153946;23;20354;-70
2023/09/07 11:23:39;;;;;;;8.95;3.78;;;25.90;99.90;;;;;;6154259;23;20091;-70
2023/09/07 11:26:07;;;;;;;4.93;3.33;;;25.90;99.90;;;;;;6153665;23;20040;-69
2023/09/07 11:28:32;;;;;;;9.20;3.70;;;26.00;99.90;;;;;;6180274;23;20488;-70
2023/09/07 11:30:58;;;;;;;6.45;3.72;;;26.10;99.90;;;;;;6180444;23;20029;-70
2023/09/07 11:33:24;;;;;;;4.53;3.65;;;26.00;99.90;;;;;;6153601;23;20052;-70
2023/09/07 11:35:51;;;;;;;5.03;2.95;;;26.10;99.90;;;;;;6129282;23;20067;-69
2023/09/07 11:38:18;;;;;;;7.35;3.40;;;26.10;99.90;;;;;;6180615;23;20024;-70
2023/09/07 11:40:44;;;;;;;5.45;3.42;;;26.20;99.90;;;;;;6154557;23;20342;-70
2023/09/07 11:43:15;;;;;;;6.07;3.45;;;26.30;99.90;;;;;;6180005;23;20096;-70
2023/09/07 11:45:41;;;;;;;9.18;4.32;;;26.40;99.90;;;;;;6153623;23;20021;-69
2023/09/07 11:48:10;;;;;;;6.53;3.58;;;26.40;99.90;;;;;;6129368;23;20096;-70
2023/09/07 11:50:37;;;;;;;5.13;3.60;;;26.50;99.90;;;;;;6180231;23;20017;-70
2023/09/07 11:53:04;;;;;;;7.15;3.35;;;26.40;99.90;;;;;;6129088;23;20017;-70
2023/09/07 11:55:30;;;;;;;6.07;3.28;;;26.40;99.90;;;;;;6153787;23;20100;-70
2023/09/07 11:57:56;;;;;;;4.78;3.30;;;26.40;99.90;;;;;;6180850;23;20107;-70
2023/09/07 12:00:22;;;;;;;7.93;3.33;;;26.50;99.90;;;;;;6180398;23;20036;-70
2023/09/07 12:02:48;;;;;;;5.82;3.30;;;26.50;99.90;;;;;;6153775;23;20044;-70
2023/09/07 12:05:15;;;;;;;6.10;3.10;;;26.50;99.90;;;;;;6155997;23;20033;-70
2023/09/07 12:07:44;;;;;;;6.10;4.03;;;26.60;99.90;;;;;;6155832;23;20028;-70
2023/09/07 12:10:11;;;;;;;4.93;3.58;;;26.60;99.90;;;;;;6155837;23;20108;-70
2023/09/07 12:12:40;;;;;;;8.70;3.42;;;26.60;99.90;;;;;;6155674;23;20087;-70
2023/09/07 12:15:07;;;;;;;5.80;2.72;;;26.60;99.90;;;;;;6182433;23;20103;-70
2023/09/07 12:17:33;;;;;;;5.57;3.45;;;26.60;99.90;;;;;;6182429;23;20484;-70
2023/09/07 12:20:00;;;;;;;5.65;4.13;;;26.70;99.90;;;;;;6156425;23;20353;-70
2023/09/07 12:22:26;;;;;;;6.10;3.35;;;26.70;99.90;;;;;;6182629;23;20063;-70
2023/09/07 12:24:52;;;;;;;4.22;3.22;;;26.70;99.90;;;;;;6155509;23;20589;-70
2023/09/07 12:27:18;;;;;;;4.97;3.45;;;26.70;99.90;;;;;;6155460;23;20017;-70
2023/09/07 12:29:44;;;;;;;5.22;3.50;;;26.90;99.90;;;;;;6182606;23;20029;-70
2023/09/07 12:32:11;;;;;;;5.72;3.90;;;26.90;99.90;;;;;;6182584;23;20028;-70
2023/09/07 12:34:37;;;;;;;5.38;3.33;;;27.00;99.90;;;;;;6156089;23;20051;-70
2023/09/07 12:37:05;;;;;;;5.80;3.42;;;27.10;99.90;;;;;;6182908;23;20049;-70
2023/09/07 12:39:32;;;;;;;5.32;3.40;;;27.10;99.90;;;;;;6182611;23;20017;-70
2023/09/07 12:41:57;;;;;;;8.38;3.08;;;27.20;99.90;;;;;;6182544;23;20009;-70
2023/09/07 12:44:23;;;;;;;7.43;3.53;;;27.10;99.90;;;;;;6155980;23;20273;-70
2023/09/07 12:46:49;;;;;;;6.97;3.47;;;27.20;99.90;;;;;;6182713;23;20021;-70
2023/09/07 12:49:15;;;;;;;5.10;3.70;;;27.30;99.90;;;;;;6182493;23;20342;-70
2023/09/07 12:51:41;;;;;;;6.05;3.67;;;27.30;99.90;;;;;;6181880;23;20036;-70
2023/09/07 12:54:07;;;;;;;4.07;3.03;;;27.30;99.90;;;;;;6155680;23;20024;-70
2023/09/07 12:56:33;;;;;;;4.45;3.20;;;27.30;99.90;;;;;;6181900;23;20203;-70
2023/09/07 12:58:59;;;;;;;5.55;3.13;;;27.30;99.90;;;;;;6155374;23;20076;-70
2023/09/07 13:01:26;;;;;;;3.20;2.78;;;27.50;99.90;;;;;;6182181;23;20013;-70
2023/09/07 13:03:51;;;;;;;6.78;3.00;;;27.50;99.90;;;;;;6155250;23;20083;-70
2023/09/07 13:06:17;;;;;;;5.07;3.10;;;27.60;99.90;;;;;;6182226;23;20025;-70
2023/09/07 13:08:44;;;;;;;8.55;3.47;;;27.60;99.90;;;;;;6155696;23;20021;-70
2023/09/07 13:11:11;;;;;;;8.05;3.17;;;27.60;99.90;;;;;;6155212;23;20017;-70
2023/09/07 13:13:37;;;;;;;4.72;2.83;;;27.60;99.90;;;;;;6181850;23;20449;-70
2023/09/07 13:16:02;;;;;;;4.60;3.08;;;27.60;99.90;;;;;;6181316;23;20027;-70
2023/09/07 13:18:28;;;;;;;4.55;3.38;;;27.60;99.90;;;;;;6182087;23;20653;-70
2023/09/07 13:20:59;;;;;;;5.05;3.00;;;27.60;99.90;;;;;;6182153;23;20087;-70
2023/09/07 13:23:26;;;;;;;4.43;2.83;;;27.60;99.90;;;;;;6155457;23;20024;-70
2023/09/07 13:25:52;;;;;;;6.63;3.03;;;27.60;99.90;;;;;;6154785;23;20104;-70
2023/09/07 13:28:17;;;;;;;5.68;3.38;;;27.70;99.90;;;;;;6155392;23;20413;-70
2023/09/07 13:30:43;;;;;;;5.50;3.25;;;27.70;99.90;;;;;;6181828;23;20441;-70
2023/09/07 13:33:09;;;;;;;4.93;3.10;;;27.70;99.90;;;;;;6182119;23;20028;-70
2023/09/07 13:35:34;;;;;;;4.22;2.95;;;27.70;99.90;;;;;;6155502;23;20021;-70
2023/09/07 13:38:00;;;;;;;4.35;3.08;;;27.80;99.90;;;;;;6155299;23;20017;-70